Time,TemperatureF,DewpointF,PressureIn,WindDirection,WindDirectionDegrees,WindSpeedMPH,WindSpeedGustMPH,Humidity,HourlyPrecipIn,Conditions,Clouds,dailyrainin,SoftwareType,DateUTC
2013-11-13 00:22:00,35.0,34.0,-100.00,SSW,201,0.0,0.0,98,0.00,,,0.01,,2013-11-13 08:22:00,
2013-11-13 00:32:00,35.0,34.0,-100.00,SSW,201,0.0,0.0,98,0.00,,,0.01,,2013-11-13 08:32:00,
2013-11-13 00:42:00,35.0,34.0,-100.00,SSW,201,0.0,0.0,98,0.00,,,0.01,,2013-11-13 08:42:00,
2013-11-13 00:52:00,35.0,34.0,-100.00,SSW,201,0.0,0.0,98,0.00,,,0.01,,2013-11-13 08:52:00,
2013-11-13 01:21:00,38.0,38.0,-100.00,SW,222,1.0,5.0,99,0.00,,,0.01,,2013-11-13 09:21:00,
2013-11-13 01:33:00,38.0,38.0,-100.00,SW,222,1.0,5.0,99,0.00,,,0.01,,2013-11-13 09:33:00,
2013-11-13 01:43:00,38.0,38.0,-100.00,SW,222,1.0,5.0,99,0.00,,,0.01,,2013-11-13 09:43:00,
2013-11-13 01:52:00,38.0,38.0,-100.00,SW,222,1.0,5.0,99,0.00,,,0.01,,2013-11-13 09:52:00,
2013-11-13 02:23:00,38.0,37.0,-100.00,SSW,197,0.0,6.0,98,0.00,,,0.01,,2013-11-13 10:23:00,
2013-11-13 02:33:00,38.0,37.0,-100.00,SSW,197,0.0,6.0,98,0.00,,,0.01,,2013-11-13 10:33:00,
2013-11-13 02:42:00,38.0,37.0,-100.00,SSW,197,0.0,6.0,98,0.00,,,0.01,,2013-11-13 10:42:00,
2013-11-13 02:52:00,38.0,37.0,-100.00,SSW,197,0.0,6.0,98,0.00,,,0.01,,2013-11-13 10:52:00,
2013-11-13 03:22:00,36.0,35.0,-100.00,SW,223,0.0,7.0,98,0.00,,,0.01,,2013-11-13 11:22:00,
2013-11-13 03:33:00,36.0,35.0,-100.00,SW,223,0.0,7.0,98,0.00,,,0.01,,2013-11-13 11:33:00,
2013-11-13 03:42:00,36.0,35.0,-100.00,SW,223,0.0,7.0,98,0.00,,,0.01,,2013-11-13 11:42:00,
2013-11-13 03:52:00,36.0,35.0,-100.00,SW,223,0.0,7.0,98,0.00,,,0.01,,2013-11-13 11:52:00,
2013-11-13 04:22:00,37.0,36.0,-100.00,West,269,0.0,6.0,98,0.00,,,-99.99,,2013-11-13 12:22:00,
2013-11-13 04:31:00,37.0,36.0,-100.00,West,269,0.0,6.0,98,0.00,,,-99.99,,2013-11-13 12:31:00,
2013-11-13 04:41:00,37.0,36.0,-100.00,West,269,0.0,6.0,98,0.00,,,-99.99,,2013-11-13 12:41:00,
2013-11-13 04:52:00,37.0,36.0,-100.00,West,269,0.0,6.0,98,0.00,,,-99.99,,2013-11-13 12:52:00,
2013-11-13 05:21:00,37.0,36.0,-100.00,NNE,17,0.0,0.0,98,0.00,,,0.01,,2013-11-13 13:21:00,
2013-11-13 05:31:00,37.0,36.0,-100.00,NNE,17,0.0,0.0,98,0.00,,,0.01,,2013-11-13 13:31:00,
2013-11-13 05:42:00,37.0,36.0,-100.00,NNE,17,0.0,0.0,98,0.00,,,0.01,,2013-11-13 13:42:00,
2013-11-13 05:52:00,37.0,36.0,-100.00,NNE,17,0.0,0.0,98,0.00,,,0.01,,2013-11-13 13:52:00,
2013-11-13 06:22:00,37.0,36.0,-100.00,NNE,14,0.0,4.0,98,0.00,,,-99.99,,2013-11-13 14:22:00,
2013-11-13 06:32:00,37.0,36.0,-100.00,NNE,14,0.0,4.0,98,0.00,,,-99.99,,2013-11-13 14:32:00,
2013-11-13 06:42:00,37.0,36.0,-100.00,NNE,14,0.0,4.0,98,0.00,,,-99.99,,2013-11-13 14:42:00,
2013-11-13 06:52:00,37.0,36.0,-100.00,NNE,14,0.0,4.0,98,0.00,,,-99.99,,2013-11-13 14:52:00,
2013-11-13 06:53:00,35.0,34.0,-100.00,ENE,60,0.0,0.0,98,0.00,,,0.01,,2013-11-13 14:53:00,
2013-11-13 07:21:00,35.0,34.0,-100.00,ENE,60,0.0,0.0,98,0.00,,,0.01,,2013-11-13 15:21:00,
2013-11-13 07:33:00,35.0,34.0,-100.00,ENE,60,0.0,0.0,98,0.00,,,0.01,,2013-11-13 15:33:00,
2013-11-13 07:43:00,35.0,34.0,-100.00,ENE,60,0.0,0.0,98,0.00,,,0.01,,2013-11-13 15:43:00,
2013-11-13 08:23:00,36.0,35.0,-100.00,East,89,0.0,2.0,98,0.01,,,0.02,,2013-11-13 16:23:00,
2013-11-13 08:32:00,36.0,35.0,-100.00,East,89,0.0,2.0,98,0.01,,,0.02,,2013-11-13 16:32:00,
2013-11-13 08:42:00,36.0,35.0,-100.00,East,89,0.0,2.0,98,0.01,,,0.02,,2013-11-13 16:42:00,
2013-11-13 08:52:00,36.0,35.0,-100.00,East,89,0.0,2.0,98,0.01,,,0.02,,2013-11-13 16:52:00,
2013-11-13 09:22:00,38.0,38.0,-100.00,East,79,0.0,3.0,99,0.00,,,0.02,,2013-11-13 17:22:00,
2013-11-13 09:33:00,38.0,38.0,-100.00,East,79,0.0,3.0,99,0.00,,,0.02,,2013-11-13 17:33:00,
2013-11-13 09:42:00,38.0,38.0,-100.00,East,79,0.0,3.0,99,0.00,,,0.02,,2013-11-13 17:42:00,
2013-11-13 09:52:00,38.0,38.0,-100.00,East,79,0.0,3.0,99,0.00,,,0.02,,2013-11-13 17:52:00,
2013-11-13 10:23:00,39.0,39.0,-100.00,ENE,66,0.0,0.0,99,0.00,,,0.02,,2013-11-13 18:23:00,
2013-11-13 10:32:00,39.0,39.0,-100.00,ENE,66,0.0,0.0,99,0.00,,,0.02,,2013-11-13 18:32:00,
2013-11-13 10:42:00,39.0,39.0,-100.00,ENE,66,0.0,0.0,99,0.00,,,0.02,,2013-11-13 18:42:00,
2013-11-13 10:52:00,39.0,39.0,-100.00,ENE,66,0.0,0.0,99,0.00,,,0.02,,2013-11-13 18:52:00,
2013-11-13 11:21:00,39.0,38.0,-100.00,SSE,152,0.0,3.0,97,0.00,,,0.02,,2013-11-13 19:21:00,
2013-11-13 11:32:00,39.0,38.0,-100.00,SSE,152,0.0,3.0,97,0.00,,,0.02,,2013-11-13 19:32:00,
2013-11-13 11:42:00,39.0,38.0,-100.00,SSE,152,0.0,3.0,97,0.00,,,0.02,,2013-11-13 19:42:00,
2013-11-13 11:52:00,39.0,38.0,-100.00,SSE,152,0.0,3.0,97,0.00,,,0.02,,2013-11-13 19:52:00,
2013-11-13 12:22:00,41.0,39.0,-100.00,SE,132,0.0,4.0,94,0.00,,,0.02,,2013-11-13 20:22:00,
2013-11-13 12:32:00,41.0,39.0,-100.00,SE,132,0.0,4.0,94,0.00,,,0.02,,2013-11-13 20:32:00,
2013-11-13 12:42:00,41.0,39.0,-100.00,SE,132,0.0,4.0,94,0.00,,,0.02,,2013-11-13 20:42:00,
2013-11-13 12:52:00,41.0,39.0,-100.00,SE,132,0.0,4.0,94,0.00,,,0.02,,2013-11-13 20:52:00,
2013-11-13 12:53:00,42.0,40.0,-100.00,SE,132,1.0,4.0,91,0.00,,,-99.99,,2013-11-13 20:53:00,
2013-11-13 13:21:00,42.0,40.0,-100.00,SE,132,1.0,4.0,91,0.00,,,-99.99,,2013-11-13 21:21:00,
2013-11-13 13:33:00,42.0,40.0,-100.00,SE,132,1.0,4.0,91,0.00,,,-99.99,,2013-11-13 21:33:00,
2013-11-13 13:43:00,42.0,40.0,-100.00,SE,132,1.0,4.0,91,0.00,,,-99.99,,2013-11-13 21:43:00,
2013-11-13 14:23:00,43.0,40.0,-100.00,SSW,202,0.0,5.0,88,0.00,,,0.01,,2013-11-13 22:23:00,
2013-11-13 14:33:00,43.0,40.0,-100.00,SSW,202,0.0,5.0,88,0.00,,,0.01,,2013-11-13 22:33:00,
2013-11-13 14:42:00,43.0,40.0,-100.00,SSW,202,0.0,5.0,88,0.00,,,0.01,,2013-11-13 22:42:00,
2013-11-13 14:52:00,43.0,40.0,-100.00,SSW,202,0.0,5.0,88,0.00,,,0.01,,2013-11-13 22:52:00,
2013-11-13 15:22:00,43.0,39.0,-100.00,SW,226,4.0,7.0,85,0.00,,,0.01,,2013-11-13 23:22:00,
2013-11-13 15:32:00,43.0,39.0,-100.00,SW,226,4.0,7.0,85,0.00,,,0.01,,2013-11-13 23:32:00,
2013-11-13 15:42:00,43.0,39.0,-100.00,SW,226,4.0,7.0,85,0.00,,,0.01,,2013-11-13 23:42:00,
2013-11-13 15:52:00,43.0,39.0,-100.00,SW,226,4.0,7.0,85,0.00,,,0.01,,2013-11-13 23:52:00,
2013-11-13 16:22:00,39.0,37.0,-100.00,SSE,155,0.0,7.0,93,0.00,,,0.01,,2013-11-14 00:22:00,
2013-11-13 16:32:00,39.0,37.0,-100.00,SSE,155,0.0,7.0,93,0.00,,,0.01,,2013-11-14 00:32:00,
2013-11-13 16:42:00,39.0,37.0,-100.00,SSE,155,0.0,7.0,93,0.00,,,0.01,,2013-11-14 00:42:00,
2013-11-13 16:52:00,39.0,37.0,-100.00,SSE,155,0.0,7.0,93,0.00,,,0.01,,2013-11-14 00:52:00,
2013-11-13 17:21:00,39.0,37.0,-100.00,WSW,241,4.0,7.0,93,0.00,,,-99.99,,2013-11-14 01:21:00,
2013-11-13 17:32:00,39.0,37.0,-100.00,WSW,241,4.0,7.0,93,0.00,,,-99.99,,2013-11-14 01:32:00,
2013-11-13 17:42:00,39.0,37.0,-100.00,WSW,241,4.0,7.0,93,0.00,,,-99.99,,2013-11-14 01:42:00,
2013-11-13 17:52:00,39.0,37.0,-100.00,WSW,241,4.0,7.0,93,0.00,,,-99.99,,2013-11-14 01:52:00,
2013-11-13 17:53:00,38.0,36.0,-100.00,WSW,237,3.0,8.0,93,0.00,,,0.01,,2013-11-14 01:53:00,
2013-11-13 18:21:00,38.0,36.0,-100.00,WSW,237,3.0,8.0,93,0.00,,,0.01,,2013-11-14 02:21:00,
2013-11-13 18:32:00,38.0,36.0,-100.00,WSW,237,3.0,8.0,93,0.00,,,0.01,,2013-11-14 02:32:00,
2013-11-13 18:42:00,38.0,36.0,-100.00,WSW,237,3.0,8.0,93,0.00,,,0.01,,2013-11-14 02:42:00,
2013-11-13 18:53:00,38.0,36.0,-100.00,South,172,0.0,8.0,94,0.00,,,0.01,,2013-11-14 02:53:00,
2013-11-13 19:21:00,38.0,36.0,-100.00,South,172,0.0,8.0,94,0.00,,,0.01,,2013-11-14 03:21:00,
2013-11-13 19:34:00,38.0,36.0,-100.00,South,172,0.0,8.0,94,0.00,,,0.01,,2013-11-14 03:34:00,
2013-11-13 19:43:00,38.0,36.0,-100.00,South,172,0.0,8.0,94,0.00,,,0.01,,2013-11-14 03:43:00,
2013-11-13 19:53:00,33.0,32.0,-100.00,SSW,213,0.0,5.0,98,0.00,,,0.01,,2013-11-14 03:53:00,
2013-11-13 20:24:00,33.0,32.0,-100.00,SSW,213,0.0,5.0,98,0.00,,,0.01,,2013-11-14 04:24:00,
2013-11-13 20:34:00,33.0,32.0,-100.00,SSW,213,0.0,5.0,98,0.00,,,0.01,,2013-11-14 04:34:00,
2013-11-13 20:43:00,33.0,32.0,-100.00,SSW,213,0.0,5.0,98,0.00,,,0.01,,2013-11-14 04:43:00,
2013-11-13 20:53:00,36.0,35.0,-100.00,SW,236,0.0,4.0,98,0.00,,,0.01,,2013-11-14 04:53:00,
2013-11-13 21:23:00,36.0,35.0,-100.00,SW,236,0.0,4.0,98,0.00,,,0.01,,2013-11-14 05:23:00,
2013-11-13 21:33:00,36.0,35.0,-100.00,SW,236,0.0,4.0,98,0.00,,,0.01,,2013-11-14 05:33:00,
2013-11-13 21:44:00,36.0,35.0,-100.00,SW,236,0.0,4.0,98,0.00,,,0.01,,2013-11-14 05:44:00,
2013-11-13 22:21:00,36.0,35.0,-100.00,SE,124,0.0,3.0,98,0.00,,,0.01,,2013-11-14 06:21:00,
2013-11-13 22:32:00,36.0,35.0,-100.00,SE,124,0.0,3.0,98,0.00,,,0.01,,2013-11-14 06:32:00,
2013-11-13 22:42:00,36.0,35.0,-100.00,SE,124,0.0,3.0,98,0.00,,,0.01,,2013-11-14 06:42:00,
2013-11-13 22:52:00,36.0,35.0,-100.00,SE,124,0.0,3.0,98,0.00,,,0.01,,2013-11-14 06:52:00,
2013-11-13 23:22:00,34.0,34.0,-100.00,SW,229,0.0,4.0,98,0.00,,,0.01,,2013-11-14 07:22:00,
2013-11-13 23:32:00,34.0,34.0,-100.00,SW,229,0.0,4.0,98,0.00,,,0.01,,2013-11-14 07:32:00,
2013-11-13 23:42:00,34.0,34.0,-100.00,SW,229,0.0,4.0,98,0.00,,,0.01,,2013-11-14 07:42:00,
2013-11-13 23:52:00,34.0,34.0,-100.00,SW,229,0.0,4.0,98,0.00,,,0.01,,2013-11-14 07:52:00,
2013-11-13 23:53:00,33.0,32.0,-100.00,WSW,253,0.0,0.0,98,0.00,,,0.01,,2013-11-14 07:53:00,